PWSweather.com
Personal Weather Stations
Station Observations
IONTARIO88
Lincoln, ON L0R

Lincoln, ON L0R

Lat: 43.1763563, Lon: -79.4719525

Elevation: 297

Station Type: Davis Vantage Pro 2 Plus

http://www.beamsvillewx.ca

High Low Average
Temperature 29.3°F-1.5°C 13.6°F-10.2°C 22.9°F-5.1°C
Dew Point 20.7°F-6.3°C 9.7°F-12.4°C 15.7°F-9.1°C
Winds 5.0 mph 8.0 kmh Calm Calm 1.0 mph E1.6 kmh E
Wind Gusts 9.0 mph14.5 kmh -- 3.0 mph4.8 kmh
Humidity 84% 60% 74%
Pressure 30.84 in1044.4 mb 30.30 in1026.1 mb -
Precipitation 0.00 in0.0 mm - -
Hour Temp Dew Point Humidity Winds Wind Gusts Pressure Precip Precip Rate Daily Precip Total
12:00 AM 18.1°F-7.7°C 12.4°F-10.9°C 78% 1.0 mph W1.6 kmh W 4.0 mph6.4 kmh 30.80 in1043.0 mb 0.00 in0.0 mm 0.00 in0.0 mm 0.00 in0.0 mm
12:15 AM 18.3°F-7.6°C 12.9°F-10.6°C 79% 1.0 mph W1.6 kmh W 3.0 mph4.8 kmh 30.80 in1043.0 mb 0.00 in0.0 mm 0.00 in0.0 mm 0.00 in0.0 mm
12:30 AM 18.0°F-7.8°C 12.5°F-10.8°C 79% 1.0 mph W1.6 kmh W 5.0 mph8.0 kmh 30.81 in1043.3 mb 0.00 in0.0 mm 0.00 in0.0 mm 0.00 in0.0 mm
12:45 AM 17.8°F-7.9°C 12.9°F-10.6°C 81% 2.0 mph W3.2 kmh W 4.0 mph6.4 kmh 30.81 in1043.3 mb 0.00 in0.0 mm 0.00 in0.0 mm 0.00 in0.0 mm
01:00 AM 17.4°F-8.1°C 12.6°F-10.8°C 81% 2.0 mph W3.2 kmh W 3.0 mph4.8 kmh 30.81 in1043.3 mb 0.00 in0.0 mm 0.00 in0.0 mm 0.00 in0.0 mm
01:15 AM 17.4°F-8.1°C 12.6°F-10.8°C 81% 2.0 mph W3.2 kmh W 5.0 mph8.0 kmh 30.82 in1043.7 mb 0.00 in0.0 mm 0.00 in0.0 mm 0.00 in0.0 mm
01:30 AM 17.4°F-8.1°C 12.6°F-10.8°C 81% 2.0 mph W3.2 kmh W 4.0 mph6.4 kmh 30.82 in1043.7 mb 0.00 in0.0 mm 0.00 in0.0 mm 0.00 in0.0 mm
01:45 AM 17.1°F-8.3°C 12.2°F-11.0°C 81% 2.0 mph W3.2 kmh W 5.0 mph8.0 kmh 30.83 in1044.0 mb 0.00 in0.0 mm 0.00 in0.0 mm 0.00 in0.0 mm
02:00 AM 16.9°F-8.4°C 12.1°F-11.1°C 81% 2.0 mph W3.2 kmh W 4.0 mph6.4 kmh 30.83 in1044.0 mb 0.00 in0.0 mm 0.00 in0.0 mm 0.00 in0.0 mm
02:15 AM 16.7°F-8.5°C 11.9°F-11.2°C 81% 1.0 mph W1.6 kmh W 4.0 mph6.4 kmh 30.83 in1044.0 mb 0.00 in0.0 mm 0.00 in0.0 mm 0.00 in0.0 mm
02:30 AM 16.9°F-8.4°C 12.1°F-11.1°C 81% 1.0 mph W1.6 kmh W 3.0 mph4.8 kmh 30.82 in1043.7 mb 0.00 in0.0 mm 0.00 in0.0 mm 0.00 in0.0 mm
02:45 AM 16.9°F-8.4°C 12.1°F-11.1°C 81% Calm Calm 2.0 mph3.2 kmh 30.82 in1043.7 mb 0.00 in0.0 mm 0.00 in0.0 mm 0.00 in0.0 mm
03:00 AM 17.2°F-8.2°C 12.4°F-10.9°C 81% Calm Calm 1.0 mph1.6 kmh 30.83 in1044.0 mb 0.00 in0.0 mm 0.00 in0.0 mm 0.00 in0.0 mm
03:15 AM 17.2°F-8.2°C 12.4°F-10.9°C 81% Calm Calm -- 30.83 in1044.0 mb 0.00 in0.0 mm 0.00 in0.0 mm 0.00 in0.0 mm
03:30 AM 17.2°F-8.2°C 12.4°F-10.9°C 81% Calm Calm -- 30.82 in1043.7 mb 0.00 in0.0 mm 0.00 in0.0 mm 0.00 in0.0 mm
03:45 AM 17.1°F-8.3°C 12.2°F-11.0°C 81% Calm Calm -- 30.82 in1043.7 mb 0.00 in0.0 mm 0.00 in0.0 mm 0.00 in0.0 mm
04:00 AM 16.5°F-8.6°C 11.7°F-11.3°C 81% Calm Calm -- 30.83 in1044.0 mb 0.00 in0.0 mm 0.00 in0.0 mm 0.00 in0.0 mm
04:15 AM 16.0°F-8.9°C 11.7°F-11.3°C 83% Calm Calm -- 30.83 in1044.0 mb 0.00 in0.0 mm 0.00 in0.0 mm 0.00 in0.0 mm
04:30 AM 16.0°F-8.9°C 11.7°F-11.3°C 83% Calm Calm -- 30.84 in1044.4 mb 0.00 in0.0 mm 0.00 in0.0 mm 0.00 in0.0 mm
04:45 AM 15.6°F-9.1°C 11.4°F-11.4°C 83% Calm Calm 3.0 mph4.8 kmh 30.83 in1044.0 mb 0.00 in0.0 mm 0.00 in0.0 mm 0.00 in0.0 mm
05:00 AM 15.6°F-9.1°C 11.4°F-11.4°C 83% Calm Calm 2.0 mph3.2 kmh 30.83 in1044.0 mb 0.00 in0.0 mm 0.00 in0.0 mm 0.00 in0.0 mm
05:15 AM 15.6°F-9.1°C 11.6°F-11.3°C 84% Calm Calm 2.0 mph3.2 kmh 30.82 in1043.7 mb 0.00 in0.0 mm 0.00 in0.0 mm 0.00 in0.0 mm
05:30 AM 15.6°F-9.1°C 11.6°F-11.3°C 84% Calm Calm -- 30.82 in1043.7 mb 0.00 in0.0 mm 0.00 in0.0 mm 0.00 in0.0 mm
05:45 AM 15.6°F-9.1°C 11.6°F-11.3°C 84% Calm Calm 2.0 mph3.2 kmh 30.83 in1044.0 mb 0.00 in0.0 mm 0.00 in0.0 mm 0.00 in0.0 mm
06:00 AM 15.8°F-9.0°C 11.8°F-11.2°C 84% Calm Calm -- 30.82 in1043.7 mb 0.00 in0.0 mm 0.00 in0.0 mm 0.00 in0.0 mm
06:15 AM 16.2°F-8.8°C 12.2°F-11.0°C 84% Calm Calm -- 30.82 in1043.7 mb 0.00 in0.0 mm 0.00 in0.0 mm 0.00 in0.0 mm
06:30 AM 16.3°F-8.7°C 12.1°F-11.1°C 83% Calm Calm -- 30.80 in1043.0 mb 0.00 in0.0 mm 0.00 in0.0 mm 0.00 in0.0 mm
06:45 AM 15.8°F-9.0°C 11.6°F-11.3°C 83% Calm Calm -- 30.81 in1043.3 mb 0.00 in0.0 mm 0.00 in0.0 mm 0.00 in0.0 mm
07:00 AM 15.4°F-9.2°C 11.5°F-11.4°C 84% Calm Calm -- 30.82 in1043.7 mb 0.00 in0.0 mm 0.00 in0.0 mm 0.00 in0.0 mm
07:15 AM 15.3°F-9.3°C 11.3°F-11.5°C 84% Calm Calm -- 30.82 in1043.7 mb 0.00 in0.0 mm 0.00 in0.0 mm 0.00 in0.0 mm
07:30 AM 14.7°F-9.6°C 10.8°F-11.8°C 84% Calm Calm -- 30.82 in1043.7 mb 0.00 in0.0 mm 0.00 in0.0 mm 0.00 in0.0 mm
07:45 AM 14.4°F-9.8°C 10.4°F-12.0°C 84% Calm Calm -- 30.82 in1043.7 mb 0.00 in0.0 mm 0.00 in0.0 mm 0.00 in0.0 mm
08:00 AM 14.4°F-9.8°C 10.4°F-12.0°C 84% Calm Calm -- 30.82 in1043.7 mb 0.00 in0.0 mm 0.00 in0.0 mm 0.00 in0.0 mm
08:15 AM 14.2°F-9.9°C 10.2°F-12.1°C 84% 1.0 mph W1.6 kmh W 3.0 mph4.8 kmh 30.82 in1043.7 mb 0.00 in0.0 mm 0.00 in0.0 mm 0.00 in0.0 mm
08:30 AM 13.6°F-10.2°C 9.7°F-12.4°C 84% 2.0 mph W3.2 kmh W 3.0 mph4.8 kmh 30.83 in1044.0 mb 0.00 in0.0 mm 0.00 in0.0 mm 0.00 in0.0 mm
08:45 AM 13.6°F-10.2°C 9.7°F-12.4°C 84% 2.0 mph W3.2 kmh W 3.0 mph4.8 kmh 30.84 in1044.4 mb 0.00 in0.0 mm 0.00 in0.0 mm 0.00 in0.0 mm
09:00 AM 14.2°F-9.9°C 10.2°F-12.1°C 84% 2.0 mph W3.2 kmh W 4.0 mph6.4 kmh 30.83 in1044.0 mb 0.00 in0.0 mm 0.00 in0.0 mm 0.00 in0.0 mm
09:15 AM 14.5°F-9.7°C 10.3°F-12.1°C 83% 2.0 mph W3.2 kmh W 3.0 mph4.8 kmh 30.84 in1044.4 mb 0.00 in0.0 mm 0.00 in0.0 mm 0.00 in0.0 mm
09:30 AM 15.1°F-9.4°C 10.8°F-11.8°C 83% 2.0 mph W3.2 kmh W 4.0 mph6.4 kmh 30.84 in1044.4 mb 0.00 in0.0 mm 0.00 in0.0 mm 0.00 in0.0 mm
09:45 AM 16.3°F-8.7°C 11.8°F-11.2°C 82% 2.0 mph W3.2 kmh W 4.0 mph6.4 kmh 30.83 in1044.0 mb 0.00 in0.0 mm 0.00 in0.0 mm 0.00 in0.0 mm
10:00 AM 18.5°F-7.5°C 13.4°F-10.3°C 80% 1.0 mph W1.6 kmh W 4.0 mph6.4 kmh 30.83 in1044.0 mb 0.00 in0.0 mm 0.00 in0.0 mm 0.00 in0.0 mm
10:15 AM 19.2°F-7.1°C 13.8°F-10.1°C 79% 4.0 mph WSW6.4 kmh WSW 7.0 mph11.3 kmh 30.83 in1044.0 mb 0.00 in0.0 mm 0.00 in0.0 mm 0.00 in0.0 mm
10:30 AM 20.7°F-6.3°C 15.2°F-9.3°C 79% 1.0 mph WSW1.6 kmh WSW 4.0 mph6.4 kmh 30.82 in1043.7 mb 0.00 in0.0 mm 0.00 in0.0 mm 0.00 in0.0 mm
10:45 AM 23.5°F-4.7°C 16.8°F-8.4°C 75% 2.0 mph WSW3.2 kmh WSW 4.0 mph6.4 kmh 30.81 in1043.3 mb 0.00 in0.0 mm 0.00 in0.0 mm 0.00 in0.0 mm
11:00 AM 24.3°F-4.3°C 15.9°F-8.9°C 70% 2.0 mph WSW3.2 kmh WSW 5.0 mph8.0 kmh 30.81 in1043.3 mb 0.00 in0.0 mm 0.00 in0.0 mm 0.00 in0.0 mm
11:15 AM 23.5°F-4.7°C 14.9°F-9.5°C 69% 3.0 mph SW4.8 kmh SW 9.0 mph14.5 kmh 30.80 in1043.0 mb 0.00 in0.0 mm 0.00 in0.0 mm 0.00 in0.0 mm
11:30 AM 23.9°F-4.5°C 15.2°F-9.3°C 69% 2.0 mph S3.2 kmh S 7.0 mph11.3 kmh 30.80 in1043.0 mb 0.00 in0.0 mm 0.00 in0.0 mm 0.00 in0.0 mm
11:45 AM 24.4°F-4.2°C 15.7°F-9.1°C 69% 3.0 mph S4.8 kmh S 8.0 mph12.9 kmh 30.79 in1042.7 mb 0.00 in0.0 mm 0.00 in0.0 mm 0.00 in0.0 mm
12:00 PM 23.7°F-4.6°C 15.0°F-9.4°C 69% 3.0 mph S4.8 kmh S 7.0 mph11.3 kmh 30.77 in1042.0 mb 0.00 in0.0 mm 0.00 in0.0 mm 0.00 in0.0 mm
12:15 PM 24.4°F-4.2°C 15.4°F-9.2°C 68% 2.0 mph S3.2 kmh S 6.0 mph9.7 kmh 30.77 in1042.0 mb 0.00 in0.0 mm 0.00 in0.0 mm 0.00 in0.0 mm
12:30 PM 24.8°F-4.0°C 15.4°F-9.2°C 67% 3.0 mph S4.8 kmh S 6.0 mph9.7 kmh 30.77 in1042.0 mb 0.00 in0.0 mm 0.00 in0.0 mm 0.00 in0.0 mm
12:45 PM 25.5°F-3.6°C 15.0°F-9.4°C 64% 3.0 mph SSE4.8 kmh SSE 8.0 mph12.9 kmh 30.75 in1041.3 mb 0.00 in0.0 mm 0.00 in0.0 mm 0.00 in0.0 mm
01:00 PM 26.1°F-3.3°C 15.5°F-9.2°C 64% 3.0 mph SE4.8 kmh SE 6.0 mph9.7 kmh 30.74 in1041.0 mb 0.00 in0.0 mm 0.00 in0.0 mm 0.00 in0.0 mm
01:15 PM 26.4°F-3.1°C 15.9°F-8.9°C 64% 3.0 mph SE4.8 kmh SE 7.0 mph11.3 kmh 30.73 in1040.6 mb 0.00 in0.0 mm 0.00 in0.0 mm 0.00 in0.0 mm
01:30 PM 26.2°F-3.2°C 15.0°F-9.4°C 62% 3.0 mph SE4.8 kmh SE 9.0 mph14.5 kmh 30.71 in1040.0 mb 0.00 in0.0 mm 0.00 in0.0 mm 0.00 in0.0 mm
01:45 PM 27.1°F-2.7°C 15.8°F-9.0°C 62% 3.0 mph SE4.8 kmh SE 6.0 mph9.7 kmh 30.70 in1039.6 mb 0.00 in0.0 mm 0.00 in0.0 mm 0.00 in0.0 mm
02:00 PM 28.4°F-2.0°C 17.0°F-8.3°C 62% 2.0 mph SE3.2 kmh SE 4.0 mph6.4 kmh 30.69 in1039.3 mb 0.00 in0.0 mm 0.00 in0.0 mm 0.00 in0.0 mm
02:15 PM 28.6°F-1.9°C 16.8°F-8.4°C 61% 2.0 mph SE3.2 kmh SE 4.0 mph6.4 kmh 30.69 in1039.3 mb 0.00 in0.0 mm 0.00 in0.0 mm 0.00 in0.0 mm
02:30 PM 29.3°F-1.5°C 17.1°F-8.3°C 60% 2.0 mph SE3.2 kmh SE 3.0 mph4.8 kmh 30.68 in1038.9 mb 0.00 in0.0 mm 0.00 in0.0 mm 0.00 in0.0 mm
02:45 PM 28.9°F-1.7°C 17.9°F-7.8°C 63% 3.0 mph NE4.8 kmh NE 7.0 mph11.3 kmh 30.66 in1038.3 mb 0.00 in0.0 mm 0.00 in0.0 mm 0.00 in0.0 mm
03:00 PM 28.0°F-2.2°C 18.1°F-7.7°C 66% 4.0 mph NE6.4 kmh NE 8.0 mph12.9 kmh 30.65 in1037.9 mb 0.00 in0.0 mm 0.00 in0.0 mm 0.00 in0.0 mm
03:15 PM 27.9°F-2.3°C 18.3°F-7.6°C 67% 5.0 mph NE8.0 kmh NE 9.0 mph14.5 kmh 30.65 in1037.9 mb 0.00 in0.0 mm 0.00 in0.0 mm 0.00 in0.0 mm
03:30 PM 27.3°F-2.6°C 18.1°F-7.7°C 68% 4.0 mph NE6.4 kmh NE 8.0 mph12.9 kmh 30.63 in1037.3 mb 0.00 in0.0 mm 0.00 in0.0 mm 0.00 in0.0 mm
03:45 PM 27.1°F-2.7°C 17.6°F-8.0°C 67% 3.0 mph NE4.8 kmh NE 6.0 mph9.7 kmh 30.62 in1036.9 mb 0.00 in0.0 mm 0.00 in0.0 mm 0.00 in0.0 mm
04:00 PM 27.7°F-2.4°C 18.1°F-7.7°C 67% 2.0 mph NE3.2 kmh NE 5.0 mph8.0 kmh 30.61 in1036.6 mb 0.00 in0.0 mm 0.00 in0.0 mm 0.00 in0.0 mm
04:15 PM 27.7°F-2.4°C 18.8°F-7.3°C 69% 3.0 mph NE4.8 kmh NE 7.0 mph11.3 kmh 30.60 in1036.2 mb 0.00 in0.0 mm 0.00 in0.0 mm 0.00 in0.0 mm
04:30 PM 27.7°F-2.4°C 18.8°F-7.3°C 69% 2.0 mph NE3.2 kmh NE 5.0 mph8.0 kmh 30.59 in1035.9 mb 0.00 in0.0 mm 0.00 in0.0 mm 0.00 in0.0 mm
04:45 PM 27.7°F-2.4°C 18.8°F-7.3°C 69% 2.0 mph NE3.2 kmh NE 5.0 mph8.0 kmh 30.59 in1035.9 mb 0.00 in0.0 mm 0.00 in0.0 mm 0.00 in0.0 mm
05:00 PM 27.7°F-2.4°C 18.8°F-7.3°C 69% 3.0 mph NE4.8 kmh NE 6.0 mph9.7 kmh 30.59 in1035.9 mb 0.00 in0.0 mm 0.00 in0.0 mm 0.00 in0.0 mm
05:15 PM 27.9°F-2.3°C 19.0°F-7.2°C 69% 3.0 mph NE4.8 kmh NE 7.0 mph11.3 kmh 30.57 in1035.2 mb 0.00 in0.0 mm 0.00 in0.0 mm 0.00 in0.0 mm
05:30 PM 27.9°F-2.3°C 19.3°F-7.1°C 70% 2.0 mph NE3.2 kmh NE 6.0 mph9.7 kmh 30.54 in1034.2 mb 0.00 in0.0 mm 0.00 in0.0 mm 0.00 in0.0 mm
05:45 PM 27.9°F-2.3°C 19.0°F-7.2°C 69% 1.0 mph NE1.6 kmh NE 5.0 mph8.0 kmh 30.55 in1034.5 mb 0.00 in0.0 mm 0.00 in0.0 mm 0.00 in0.0 mm
06:00 PM 28.0°F-2.2°C 19.5°F-6.9°C 70% 1.0 mph NE1.6 kmh NE 5.0 mph8.0 kmh 30.54 in1034.2 mb 0.00 in0.0 mm 0.00 in0.0 mm 0.00 in0.0 mm
06:15 PM 27.9°F-2.3°C 19.0°F-7.2°C 69% 1.0 mph NE1.6 kmh NE 4.0 mph6.4 kmh 30.54 in1034.2 mb 0.00 in0.0 mm 0.00 in0.0 mm 0.00 in0.0 mm
06:30 PM 28.0°F-2.2°C 19.5°F-6.9°C 70% Calm Calm 4.0 mph6.4 kmh 30.53 in1033.9 mb 0.00 in0.0 mm 0.00 in0.0 mm 0.00 in0.0 mm
06:45 PM 28.0°F-2.2°C 19.5°F-6.9°C 70% 1.0 mph NE1.6 kmh NE 4.0 mph6.4 kmh 30.52 in1033.5 mb 0.00 in0.0 mm 0.00 in0.0 mm 0.00 in0.0 mm
07:00 PM 28.0°F-2.2°C 19.8°F-6.8°C 71% Calm Calm 2.0 mph3.2 kmh 30.51 in1033.2 mb 0.00 in0.0 mm 0.00 in0.0 mm 0.00 in0.0 mm
07:15 PM 28.2°F-2.1°C 20.0°F-6.7°C 71% Calm Calm -- 30.52 in1033.5 mb 0.00 in0.0 mm 0.00 in0.0 mm 0.00 in0.0 mm
07:30 PM 28.4°F-2.0°C 19.9°F-6.7°C 70% Calm Calm -- 30.51 in1033.2 mb 0.00 in0.0 mm 0.00 in0.0 mm 0.00 in0.0 mm
07:45 PM 28.6°F-1.9°C 20.0°F-6.7°C 70% Calm Calm -- 30.49 in1032.5 mb 0.00 in0.0 mm 0.00 in0.0 mm 0.00 in0.0 mm
08:00 PM 28.8°F-1.8°C 20.2°F-6.6°C 70% Calm Calm -- 30.49 in1032.5 mb 0.00 in0.0 mm 0.00 in0.0 mm 0.00 in0.0 mm
08:15 PM 28.9°F-1.7°C 20.0°F-6.7°C 69% Calm Calm -- 30.48 in1032.2 mb 0.00 in0.0 mm 0.00 in0.0 mm 0.00 in0.0 mm
08:30 PM 28.9°F-1.7°C 20.0°F-6.7°C 69% Calm Calm -- 30.47 in1031.8 mb 0.00 in0.0 mm 0.00 in0.0 mm 0.00 in0.0 mm
08:45 PM 28.9°F-1.7°C 19.7°F-6.8°C 68% Calm Calm -- 30.46 in1031.5 mb 0.00 in0.0 mm 0.00 in0.0 mm 0.00 in0.0 mm
09:00 PM 28.9°F-1.7°C 19.7°F-6.8°C 68% Calm Calm -- 30.44 in1030.8 mb 0.00 in0.0 mm 0.00 in0.0 mm 0.00 in0.0 mm
09:15 PM 28.8°F-1.8°C 19.9°F-6.7°C 69% Calm Calm -- 30.43 in1030.5 mb 0.00 in0.0 mm 0.00 in0.0 mm 0.00 in0.0 mm
09:30 PM 28.8°F-1.8°C 19.9°F-6.7°C 69% Calm Calm -- 30.43 in1030.5 mb 0.00 in0.0 mm 0.00 in0.0 mm 0.00 in0.0 mm
09:45 PM 28.8°F-1.8°C 19.9°F-6.7°C 69% Calm Calm -- 30.41 in1029.8 mb 0.00 in0.0 mm 0.00 in0.0 mm 0.00 in0.0 mm
10:00 PM 29.1°F-1.6°C 19.2°F-7.1°C 66% Calm Calm -- 30.41 in1029.8 mb 0.00 in0.0 mm 0.00 in0.0 mm 0.00 in0.0 mm
10:15 PM 29.1°F-1.6°C 19.2°F-7.1°C 66% Calm Calm -- 30.40 in1029.5 mb 0.00 in0.0 mm 0.00 in0.0 mm 0.00 in0.0 mm
10:30 PM 29.1°F-1.6°C 19.2°F-7.1°C 66% Calm Calm -- 30.39 in1029.1 mb 0.00 in0.0 mm 0.00 in0.0 mm 0.00 in0.0 mm
10:45 PM 28.9°F-1.7°C 19.0°F-7.2°C 66% Calm Calm -- 30.38 in1028.8 mb 0.00 in0.0 mm 0.00 in0.0 mm 0.00 in0.0 mm
11:00 PM 28.8°F-1.8°C 20.2°F-6.6°C 70% Calm Calm -- 30.37 in1028.4 mb 0.00 in0.0 mm 0.00 in0.0 mm 0.00 in0.0 mm
11:15 PM 28.6°F-1.9°C 19.7°F-6.8°C 69% Calm Calm -- 30.35 in1027.8 mb 0.00 in0.0 mm 0.00 in0.0 mm 0.00 in0.0 mm
11:30 PM 28.6°F-1.9°C 20.7°F-6.3°C 72% Calm Calm -- 30.35 in1027.8 mb 0.00 in0.0 mm 0.00 in0.0 mm 0.00 in0.0 mm
11:45 PM 28.6°F-1.9°C 20.7°F-6.3°C 72% Calm Calm -- 30.34 in1027.4 mb 0.00 in0.0 mm 0.00 in0.0 mm 0.00 in0.0 mm